createdAt,value
2023-05-12T00:01:54.365Z,7.73
2023-05-12T00:04:22.367Z,7.90
2023-05-12T00:06:50.505Z,9.17
2023-05-12T00:09:18.265Z,6.83
2023-05-12T00:11:48.374Z,8.50
2023-05-12T00:14:16.442Z,7.40
2023-05-12T00:16:51.162Z,7.53
2023-05-12T00:19:19.102Z,8.47
2023-05-12T00:21:47.402Z,5.37
2023-05-12T00:24:15.210Z,5.70
2023-05-12T00:26:42.972Z,6.13
2023-05-12T00:29:11.053Z,7.23
2023-05-12T00:31:38.893Z,5.37
2023-05-12T00:34:08.028Z,7.30
2023-05-12T00:36:35.783Z,6.27
2023-05-12T00:39:04.599Z,7.17
2023-05-12T00:41:32.438Z,6.17
2023-05-12T00:44:00.207Z,6.30
2023-05-12T00:46:28.471Z,6.07
2023-05-12T00:48:56.313Z,5.50
2023-05-12T00:51:27.078Z,6.70
2023-05-12T00:53:56.708Z,5.63
2023-05-12T00:56:24.885Z,5.70
2023-05-12T00:58:52.702Z,5.90
2023-05-12T01:01:20.739Z,5.17
2023-05-12T01:03:48.620Z,4.93
2023-05-12T01:06:23.338Z,4.40
2023-05-12T01:08:52.705Z,5.40
2023-05-12T01:11:20.437Z,4.40
2023-05-12T01:13:48.244Z,3.90
2023-05-12T01:16:18.398Z,5.60
2023-05-12T01:18:50.033Z,5.07
2023-05-12T01:21:18.996Z,5.10
2023-05-12T01:23:53.059Z,4.90
2023-05-12T01:26:22.755Z,4.57
2023-05-12T01:28:51.409Z,4.27
2023-05-12T01:31:21.145Z,3.40
2023-05-12T01:33:49.265Z,3.70
2023-05-12T01:36:16.994Z,4.60
2023-05-12T01:38:44.777Z,3.03
2023-05-12T01:41:12.621Z,3.17
2023-05-12T01:43:41.798Z,5.03
2023-05-12T01:46:10.953Z,3.47
2023-05-12T01:48:38.906Z,3.73
2023-05-12T01:51:08.555Z,3.10
2023-05-12T01:53:36.292Z,3.30
2023-05-12T01:56:04.114Z,4.27
2023-05-12T01:58:31.939Z,4.50
2023-05-12T02:01:01.114Z,3.80
2023-05-12T02:03:29.069Z,3.70
2023-05-12T02:05:56.913Z,4.27
2023-05-12T02:08:24.759Z,5.20
2023-05-12T02:11:04.762Z,5.93
2023-05-12T02:13:32.697Z,7.20
2023-05-12T02:16:01.915Z,5.03
2023-05-12T02:18:29.741Z,6.47
2023-05-12T02:20:57.558Z,7.67
2023-05-12T02:23:25.385Z,7.10
2023-05-12T02:25:53.120Z,6.87
2023-05-12T02:28:20.966Z,8.13
2023-05-12T02:30:50.235Z,9.20
2023-05-12T02:33:21.458Z,8.37
2023-05-12T02:35:49.582Z,6.87
2023-05-12T02:38:17.677Z,6.97
2023-05-12T02:40:45.431Z,6.97
2023-05-12T02:43:13.381Z,7.60
2023-05-12T02:45:41.429Z,6.47
2023-05-12T02:48:09.263Z,7.47
2023-05-12T02:50:38.794Z,8.57
2023-05-12T02:53:06.816Z,6.37
2023-05-12T02:55:34.554Z,8.67
2023-05-12T02:58:02.341Z,6.80
2023-05-12T03:00:30.155Z,6.53
2023-05-12T03:02:58.010Z,8.40
2023-05-12T03:05:25.894Z,7.83
2023-05-12T03:07:55.066Z,6.03
2023-05-12T03:10:23.343Z,6.57
2023-05-12T03:12:51.238Z,10.13
2023-05-12T03:15:19.153Z,7.83
2023-05-12T03:17:46.944Z,8.30
2023-05-12T03:20:14.831Z,6.23
2023-05-12T03:22:42.656Z,6.87
2023-05-12T03:25:11.912Z,5.87
2023-05-12T03:27:39.713Z,6.03
2023-05-12T03:30:08.813Z,6.30
2023-05-12T03:32:39.209Z,6.50
2023-05-12T03:35:07.547Z,7.03
2023-05-12T03:37:35.311Z,5.27
2023-05-12T03:40:03.085Z,4.37
2023-05-12T03:42:32.188Z,6.97
2023-05-12T03:44:59.874Z,4.53
2023-05-12T03:47:29.223Z,4.50
2023-05-12T03:49:57.425Z,7.00
2023-05-12T03:52:25.173Z,4.93
2023-05-12T03:54:53.012Z,3.73
2023-05-12T03:57:21.128Z,3.33
2023-05-12T03:59:50.262Z,4.10
2023-05-12T04:02:18.117Z,3.17
2023-05-12T04:04:45.869Z,3.20
2023-05-12T04:07:13.810Z,3.40
2023-05-12T04:09:41.705Z,2.67
2023-05-12T04:12:10.029Z,2.93
2023-05-12T04:14:43.306Z,1.00
2023-05-12T04:17:12.767Z,1.00
2023-05-12T04:19:40.486Z,1.77
2023-05-12T04:22:08.273Z,2.27
2023-05-12T04:24:38.317Z,1.50
2023-05-12T04:27:07.004Z,1.80
2023-05-12T04:29:34.720Z,1.73
2023-05-12T04:32:02.610Z,1.90
2023-05-12T04:34:31.719Z,1.33
2023-05-12T04:36:59.419Z,3.57
2023-05-12T04:39:27.082Z,2.40
2023-05-12T04:41:54.917Z,2.47
2023-05-12T04:44:23.194Z,4.33
2023-05-12T04:46:53.404Z,2.40
2023-05-12T04:49:21.209Z,3.40
2023-05-12T04:51:50.419Z,3.53
2023-05-12T04:54:18.154Z,4.77
2023-05-12T04:56:45.888Z,2.67
2023-05-12T04:59:15.487Z,2.97
2023-05-12T05:01:43.502Z,3.50
2023-05-12T05:04:11.474Z,3.30
2023-05-12T05:06:39.417Z,4.33
2023-05-12T05:09:08.976Z,4.80
2023-05-12T05:11:36.774Z,4.47
2023-05-12T05:14:04.635Z,3.93
2023-05-12T05:16:32.666Z,4.70
2023-05-12T05:19:03.812Z,4.77
2023-05-12T05:21:34.606Z,4.03
2023-05-12T05:24:02.401Z,7.03
2023-05-12T05:26:31.550Z,7.43
2023-05-12T05:28:59.548Z,8.37
2023-05-12T05:31:28.826Z,6.33
2023-05-12T05:33:57.075Z,6.20
2023-05-12T05:36:26.240Z,6.40
2023-05-12T05:38:54.001Z,7.00
2023-05-12T05:41:22.832Z,6.87
2023-05-12T05:43:52.004Z,7.73
2023-05-12T05:46:19.893Z,8.17
2023-05-12T05:48:47.668Z,7.00
2023-05-12T05:51:15.432Z,7.90
2023-05-12T05:53:43.341Z,7.97
2023-05-12T05:56:11.108Z,8.53
2023-05-12T05:58:39.107Z,11.33
2023-05-12T06:01:08.220Z,8.37
2023-05-12T06:03:36.183Z,7.40
2023-05-12T06:06:04.493Z,11.17
2023-05-12T06:08:32.199Z,8.57
2023-05-12T06:11:00.136Z,10.87
2023-05-12T06:13:28.923Z,9.97
2023-05-12T06:15:56.841Z,11.33
2023-05-12T06:18:26.005Z,10.40
2023-05-12T06:20:53.785Z,12.73
2023-05-12T06:23:21.739Z,11.20
2023-05-12T06:25:49.723Z,12.13
2023-05-12T06:28:17.506Z,11.40
2023-05-12T06:30:45.307Z,15.20
2023-05-12T06:33:13.142Z,16.47
2023-05-12T06:35:42.255Z,17.40
2023-05-12T06:38:10.048Z,17.17
2023-05-12T06:40:37.958Z,20.20
2023-05-12T06:43:05.761Z,18.20
2023-05-12T06:45:33.537Z,17.10
2023-05-12T06:48:01.769Z,18.40
2023-05-12T06:50:29.651Z,22.60
2023-05-12T06:52:58.808Z,22.67
2023-05-12T06:55:26.659Z,20.87
2023-05-12T06:57:56.143Z,24.37
2023-05-12T07:00:24.415Z,21.37
2023-05-12T07:02:52.346Z,22.10
2023-05-12T07:05:21.212Z,21.77
2023-05-12T07:07:49.159Z,22.57
2023-05-12T07:10:18.377Z,21.53
2023-05-12T07:12:46.620Z,22.00
2023-05-12T07:15:14.387Z,21.70
2023-05-12T07:17:42.200Z,19.87
2023-05-12T07:20:10.734Z,22.23
2023-05-12T07:22:39.117Z,19.87
2023-05-12T07:25:07.972Z,17.43
2023-05-12T07:27:37.299Z,16.57
2023-05-12T07:30:06.147Z,17.30
2023-05-12T07:32:33.951Z,17.30
2023-05-12T07:35:02.033Z,15.83
2023-05-12T07:37:29.765Z,19.53
2023-05-12T07:39:57.490Z,15.27
2023-05-12T07:42:25.308Z,19.23
2023-05-12T07:44:54.385Z,14.40
2023-05-12T07:47:22.241Z,15.57
2023-05-12T07:49:49.983Z,15.57
2023-05-12T07:52:17.706Z,14.30
2023-05-12T07:54:45.481Z,15.03
2023-05-12T07:57:13.234Z,14.07
2023-05-12T07:59:41.315Z,17.23
2023-05-12T08:02:10.446Z,14.27
2023-05-12T08:04:38.385Z,15.27
2023-05-12T08:07:06.248Z,15.87
2023-05-12T08:09:34.025Z,15.33
2023-05-12T08:12:02.470Z,16.67
2023-05-12T08:14:30.199Z,17.13
2023-05-12T08:16:58.080Z,16.87
2023-05-12T08:19:29.364Z,14.80
2023-05-12T08:21:57.202Z,16.17
2023-05-12T08:24:25.004Z,15.40
2023-05-12T08:26:52.849Z,16.17
2023-05-12T08:29:21.095Z,16.20
2023-05-12T08:31:49.033Z,16.27
2023-05-12T08:34:16.945Z,13.80
2023-05-12T08:36:46.145Z,15.37
2023-05-12T08:39:14.218Z,15.10
2023-05-12T08:41:45.618Z,16.00
2023-05-12T08:44:13.898Z,16.27
2023-05-12T08:46:41.930Z,14.73
2023-05-12T08:49:15.752Z,16.90
2023-05-12T08:51:49.913Z,16.00
2023-05-12T08:54:28.589Z,16.83
2023-05-12T08:59:27.731Z,15.03
2023-05-12T09:01:56.245Z,15.87
2023-05-12T09:04:24.118Z,12.90
2023-05-12T09:06:55.565Z,16.97
2023-05-12T09:09:28.275Z,15.67
2023-05-12T09:11:58.583Z,12.87
2023-05-12T09:14:27.022Z,14.17
2023-05-12T09:17:00.571Z,14.43
2023-05-12T09:19:29.101Z,12.57
2023-05-12T09:21:57.227Z,17.03
2023-05-12T09:24:37.042Z,13.97
2023-05-12T09:27:06.053Z,15.80
2023-05-12T09:29:45.133Z,13.67
2023-05-12T09:32:19.586Z,14.10
2023-05-12T09:34:52.198Z,14.80
2023-05-12T09:37:19.984Z,13.87
2023-05-12T09:39:49.065Z,14.67
2023-05-12T09:42:16.797Z,12.27
2023-05-12T09:44:44.598Z,10.87
2023-05-12T09:47:12.328Z,13.13
2023-05-12T09:49:46.830Z,12.67
2023-05-12T09:52:14.556Z,12.83
2023-05-12T09:54:42.376Z,11.57
2023-05-12T09:57:14.621Z,11.97
2023-05-12T09:59:44.033Z,12.10
2023-05-12T10:02:16.018Z,11.70
2023-05-12T10:04:59.706Z,12.30
2023-05-12T10:07:29.147Z,12.77
2023-05-12T10:10:00.498Z,12.27
2023-05-12T10:12:30.109Z,11.23
2023-05-12T10:14:59.232Z,11.63
2023-05-12T10:17:28.004Z,11.73
2023-05-12T10:19:56.678Z,11.00
2023-05-12T10:22:25.614Z,11.67
2023-05-12T10:24:55.662Z,15.40
2023-05-12T10:27:24.740Z,9.73
2023-05-12T10:29:54.790Z,11.70
2023-05-12T10:32:22.782Z,11.40
2023-05-12T10:34:51.774Z,12.40
2023-05-12T10:37:19.537Z,11.83
2023-05-12T10:39:52.231Z,12.27
2023-05-12T10:42:25.179Z,10.40
2023-05-12T10:44:55.597Z,11.83
2023-05-12T10:47:27.908Z,10.67
2023-05-12T10:49:57.301Z,8.93
2023-05-12T10:52:25.163Z,8.67
2023-05-12T10:55:01.598Z,8.07
2023-05-12T10:57:30.840Z,5.47
2023-05-12T11:00:02.461Z,6.30
2023-05-12T11:02:34.692Z,6.27
2023-05-12T11:05:12.468Z,8.97
2023-05-12T11:07:41.818Z,7.37
2023-05-12T11:10:13.303Z,6.97
2023-05-12T11:12:44.790Z,6.17
2023-05-12T11:15:17.292Z,8.20
2023-05-12T11:17:47.125Z,7.83
2023-05-12T11:20:23.634Z,7.97
2023-05-12T11:22:51.897Z,8.90
2023-05-12T11:25:20.420Z,8.33
2023-05-12T11:27:51.378Z,10.30
2023-05-12T11:30:20.677Z,7.80
2023-05-12T11:32:48.793Z,11.17
2023-05-12T11:35:19.804Z,9.83
2023-05-12T11:37:47.811Z,6.87
2023-05-12T11:40:20.524Z,7.10
2023-05-12T11:42:51.680Z,8.60
2023-05-12T11:45:26.916Z,7.10
2023-05-12T11:48:07.179Z,6.60
2023-05-12T11:50:35.075Z,5.07
2023-05-12T11:53:02.853Z,5.33
2023-05-12T11:55:31.008Z,9.37
2023-05-12T11:58:01.227Z,8.13
2023-05-12T12:00:33.433Z,11.33
2023-05-12T12:03:12.682Z,11.50
2023-05-12T12:05:41.227Z,8.07
2023-05-12T12:08:10.584Z,11.47
2023-05-12T12:10:38.481Z,9.07
2023-05-12T12:13:06.688Z,7.27
2023-05-12T12:15:35.924Z,3.97
2023-05-12T12:18:03.896Z,3.23
2023-05-12T12:20:32.084Z,3.10
2023-05-12T12:22:59.878Z,5.73
2023-05-12T12:25:27.703Z,2.58
2023-05-12T12:27:55.462Z,5.82
2023-05-12T12:30:23.197Z,2.87
2023-05-12T12:32:52.282Z,3.33
2023-05-12T12:35:23.010Z,2.92
2023-05-12T12:37:52.285Z,2.43
2023-05-12T12:40:20.767Z,2.78
2023-05-12T12:42:48.743Z,2.95
2023-05-12T12:45:18.449Z,2.03
2023-05-12T12:47:48.011Z,2.97
2023-05-12T12:50:17.397Z,1.30
2023-05-12T12:52:45.246Z,2.53
2023-05-12T12:55:13.174Z,3.90
2023-05-12T12:57:41.127Z,2.38
2023-05-12T13:00:13.489Z,1.33
2023-05-12T13:02:41.690Z,11.73
2023-05-12T13:05:10.961Z,1.67
2023-05-12T13:07:40.116Z,3.42
2023-05-12T13:10:12.135Z,2.22
2023-05-12T13:12:40.098Z,1.30
2023-05-12T13:15:09.042Z,1.70
2023-05-12T13:17:37.136Z,1.65
2023-05-12T13:20:05.407Z,2.38
2023-05-12T13:22:33.262Z,2.45
2023-05-12T13:25:03.223Z,2.42
2023-05-12T13:27:31.994Z,2.03
2023-05-12T13:29:59.731Z,1.60
2023-05-12T13:32:27.509Z,1.80
2023-05-12T13:34:55.249Z,2.13
2023-05-12T13:37:24.817Z,4.45
2023-05-12T13:39:52.644Z,4.60
2023-05-12T13:42:22.448Z,2.72
2023-05-12T13:44:50.316Z,1.58
2023-05-12T13:47:18.485Z,1.98
2023-05-12T13:49:46.367Z,2.67
2023-05-12T13:52:14.844Z,4.45
2023-05-12T13:54:42.698Z,7.63
2023-05-12T13:57:14.320Z,5.57
2023-05-12T13:59:43.419Z,6.13
2023-05-12T14:02:12.006Z,7.22
2023-05-12T14:04:39.974Z,6.78
2023-05-12T14:07:08.721Z,5.35
2023-05-12T14:09:36.785Z,5.47
2023-05-12T14:12:07.168Z,4.15
2023-05-12T14:14:35.005Z,7.78
2023-05-12T14:17:04.139Z,7.72
2023-05-12T14:19:31.974Z,7.82
2023-05-12T14:22:00.211Z,12.48
2023-05-12T14:24:28.873Z,11.20
2023-05-12T14:26:56.714Z,10.30
2023-05-12T14:29:24.800Z,10.95
2023-05-12T14:31:52.607Z,12.73
2023-05-12T14:34:23.399Z,9.88
2023-05-12T14:36:51.287Z,10.50
2023-05-12T14:39:19.028Z,11.10
2023-05-12T14:41:46.820Z,10.35
2023-05-12T14:44:14.552Z,8.40
2023-05-12T14:46:42.322Z,9.10
2023-05-12T14:49:12.349Z,11.55
2023-05-12T14:51:41.998Z,10.23
2023-05-12T14:54:18.410Z,11.82
2023-05-12T14:56:52.804Z,8.90
2023-05-12T14:59:20.764Z,9.10
2023-05-12T15:01:48.589Z,9.07
2023-05-12T15:04:16.403Z,8.73
2023-05-12T15:06:45.696Z,10.63
2023-05-12T15:09:13.517Z,8.10
2023-05-12T15:11:41.459Z,8.07
2023-05-12T15:14:09.385Z,7.55
2023-05-12T15:16:37.205Z,7.38
2023-05-12T15:19:05.062Z,7.30
2023-05-12T15:21:34.846Z,9.38
2023-05-12T15:24:06.222Z,10.93
2023-05-12T15:26:35.255Z,9.50
2023-05-12T15:29:04.840Z,10.73
2023-05-12T15:31:32.688Z,7.63
2023-05-12T15:34:00.639Z,9.50
2023-05-12T15:36:28.598Z,9.40
2023-05-12T15:38:56.627Z,9.25
2023-05-12T15:41:25.808Z,8.60
2023-05-12T15:43:53.700Z,8.35
2023-05-12T15:46:21.772Z,8.63
2023-05-12T15:48:50.318Z,7.32
2023-05-12T15:51:18.206Z,10.00
2023-05-12T15:53:46.465Z,7.82
2023-05-12T15:56:14.322Z,7.80
2023-05-12T15:58:43.457Z,7.73
2023-05-12T16:01:11.343Z,8.65
2023-05-12T16:03:39.542Z,7.43
2023-05-12T16:06:08.835Z,6.70
2023-05-12T16:08:36.699Z,5.70
2023-05-12T16:11:05.753Z,6.80
2023-05-12T16:13:34.062Z,5.68
2023-05-12T16:16:03.869Z,5.28
2023-05-12T16:18:32.164Z,4.95
2023-05-12T16:21:01.762Z,7.47
2023-05-12T16:23:29.812Z,4.70
2023-05-12T16:25:57.669Z,4.80
2023-05-12T16:28:25.444Z,4.82
2023-05-12T16:30:53.233Z,5.55
2023-05-12T16:33:22.689Z,4.53
2023-05-12T16:35:50.514Z,4.18
2023-05-12T16:38:18.261Z,5.13
2023-05-12T16:40:46.008Z,5.47
2023-05-12T16:43:13.833Z,4.30
2023-05-12T16:45:41.944Z,5.15
2023-05-12T16:48:09.735Z,4.05
2023-05-12T16:50:39.052Z,4.32
2023-05-12T16:53:06.888Z,6.05
2023-05-12T16:55:34.769Z,3.80
2023-05-12T16:58:02.702Z,3.90
2023-05-12T17:00:31.379Z,4.80
2023-05-12T17:02:59.309Z,4.45
2023-05-12T17:05:27.095Z,4.88
2023-05-12T17:07:56.269Z,3.90
2023-05-12T17:10:24.027Z,4.25
2023-05-12T17:12:53.497Z,4.18
2023-05-12T17:15:21.478Z,4.30
2023-05-12T17:17:49.385Z,7.40
2023-05-12T17:20:17.231Z,5.13
2023-05-12T17:22:47.367Z,5.05
2023-05-12T17:25:18.705Z,7.22
2023-05-12T17:27:48.099Z,4.35
2023-05-12T17:30:17.052Z,4.07
2023-05-12T17:32:44.858Z,3.10
2023-05-12T17:35:12.668Z,1.85
2023-05-12T17:37:40.510Z,2.08
2023-05-12T17:40:09.687Z,1.88
2023-05-12T17:42:39.058Z,2.47
2023-05-12T17:45:08.023Z,2.10
2023-05-12T17:47:35.962Z,3.13
2023-05-12T17:50:03.834Z,2.25
2023-05-12T17:52:31.711Z,2.35
2023-05-12T17:54:59.580Z,4.35
2023-05-12T17:57:27.313Z,2.15
2023-05-12T17:59:56.759Z,2.75
2023-05-12T18:02:24.709Z,2.58
2023-05-12T18:04:52.514Z,3.85
2023-05-12T18:07:20.332Z,2.65
2023-05-12T18:09:48.161Z,2.28
2023-05-12T18:12:17.592Z,3.75
2023-05-12T18:14:45.722Z,3.13
2023-05-12T18:17:15.253Z,2.50
2023-05-12T18:19:43.152Z,2.87
2023-05-12T18:22:11.446Z,2.35
2023-05-12T18:24:39.273Z,2.23
2023-05-12T18:27:07.116Z,2.50
2023-05-12T18:29:34.870Z,2.83
2023-05-12T18:32:02.667Z,5.00
2023-05-12T18:34:32.028Z,2.63
2023-05-12T18:36:59.869Z,5.57
2023-05-12T18:39:27.634Z,2.70
2023-05-12T18:41:55.765Z,2.77
2023-05-12T18:44:23.509Z,5.43
2023-05-12T18:46:51.273Z,3.37
2023-05-12T18:49:19.058Z,4.80
2023-05-12T18:51:48.196Z,3.20
2023-05-12T18:54:16.007Z,3.70
2023-05-12T18:56:43.733Z,2.67
2023-05-12T18:59:11.408Z,2.87
2023-05-12T19:01:39.850Z,4.00
2023-05-12T19:04:07.686Z,5.72
2023-05-12T19:06:35.533Z,5.33
2023-05-12T19:09:05.096Z,4.03
2023-05-12T19:11:32.906Z,3.90
2023-05-12T19:14:00.991Z,4.90
2023-05-12T19:16:31.052Z,4.18
2023-05-12T19:19:00.370Z,5.13
2023-05-12T19:21:29.481Z,4.53
2023-05-12T19:23:57.294Z,5.73
2023-05-12T19:26:26.962Z,5.27
2023-05-12T19:28:54.846Z,5.47
2023-05-12T19:31:22.806Z,6.23
2023-05-12T19:33:51.088Z,6.37
2023-05-12T19:36:18.944Z,8.73
2023-05-12T19:38:46.656Z,5.70
2023-05-12T19:41:14.479Z,6.27
2023-05-12T19:43:43.816Z,5.70
2023-05-12T19:46:11.879Z,7.47
2023-05-12T19:48:39.773Z,11.50
2023-05-12T19:51:07.769Z,15.87
2023-05-12T19:53:35.553Z,13.37
2023-05-12T19:56:03.393Z,16.20
2023-05-12T19:58:31.161Z,16.27
2023-05-12T20:01:00.480Z,13.10
2023-05-12T20:03:28.404Z,15.90
2023-05-12T20:05:56.451Z,15.03
2023-05-12T20:08:24.354Z,15.43
2023-05-12T20:10:52.197Z,15.77
2023-05-12T20:13:21.162Z,17.40
2023-05-12T20:15:49.074Z,15.23
2023-05-12T20:18:18.195Z,16.13
2023-05-12T20:20:46.197Z,18.70
2023-05-12T20:23:14.055Z,27.83
2023-05-12T20:25:42.354Z,15.87
2023-05-12T20:28:11.780Z,17.50
2023-05-12T20:30:41.616Z,17.80
2023-05-12T20:33:09.410Z,21.03
2023-05-12T20:35:38.980Z,19.77
2023-05-12T20:38:07.041Z,20.37
2023-05-12T20:40:34.859Z,21.70
2023-05-12T20:43:02.746Z,19.67
2023-05-12T20:45:30.635Z,25.60
2023-05-12T20:47:58.457Z,22.87
2023-05-12T20:50:28.056Z,17.00
2023-05-12T20:52:57.220Z,17.73
2023-05-12T20:55:26.500Z,17.77
2023-05-12T20:57:54.410Z,20.57
2023-05-12T21:00:22.629Z,22.10
2023-05-12T21:02:52.325Z,18.43
2023-05-12T21:05:21.118Z,16.77
2023-05-12T21:07:49.154Z,15.80
2023-05-12T21:10:18.875Z,16.57
2023-05-12T21:12:46.981Z,24.27
2023-05-12T21:15:14.787Z,20.87
2023-05-12T21:17:43.271Z,17.63
2023-05-12T21:20:12.586Z,16.80
2023-05-12T21:22:41.456Z,19.03
2023-05-12T21:25:10.084Z,19.53
2023-05-12T21:27:41.590Z,20.57
2023-05-12T21:30:11.088Z,18.63
2023-05-12T21:32:39.687Z,16.87
2023-05-12T21:35:08.446Z,16.33
2023-05-12T21:37:36.524Z,17.93
2023-05-12T21:40:04.949Z,16.87
2023-05-12T21:42:32.789Z,19.10
2023-05-12T21:45:02.002Z,15.70
2023-05-12T21:47:29.778Z,18.90
2023-05-12T21:49:57.695Z,15.97
2023-05-12T21:52:25.579Z,13.80
2023-05-12T21:54:53.455Z,16.03
2023-05-12T21:57:21.153Z,15.83
2023-05-12T21:59:49.580Z,14.00
2023-05-12T22:02:18.845Z,15.03
2023-05-12T22:04:46.752Z,14.83
2023-05-12T22:07:14.560Z,15.30
2023-05-12T22:09:42.223Z,16.17
2023-05-12T22:12:15.237Z,15.43
2023-05-12T22:14:43.036Z,17.90
2023-05-12T22:17:10.857Z,14.47
2023-05-12T22:19:40.181Z,16.60
2023-05-12T22:22:08.170Z,16.67
2023-05-12T22:24:36.335Z,18.20
2023-05-12T22:27:04.167Z,15.70
2023-05-12T22:29:31.875Z,13.10
2023-05-12T22:31:59.589Z,13.83
2023-05-12T22:34:27.454Z,13.27
2023-05-12T22:36:56.557Z,13.97
2023-05-12T22:39:24.319Z,12.73
2023-05-12T22:41:52.078Z,11.23
2023-05-12T22:44:19.850Z,12.83
2023-05-12T22:46:47.727Z,12.20
2023-05-12T22:49:15.584Z,11.77
2023-05-12T22:51:43.409Z,12.40
2023-05-12T22:54:12.606Z,11.13
2023-05-12T22:56:40.505Z,10.93
2023-05-12T22:59:08.244Z,13.67
2023-05-12T23:01:36.042Z,11.17
2023-05-12T23:04:03.954Z,11.90
2023-05-12T23:06:32.455Z,15.53
2023-05-12T23:09:00.991Z,14.77
2023-05-12T23:11:30.171Z,12.77
2023-05-12T23:13:58.238Z,15.60
2023-05-12T23:16:26.102Z,14.50
2023-05-12T23:18:53.954Z,15.13
2023-05-12T23:21:21.693Z,13.20
2023-05-12T23:23:49.566Z,13.77
2023-05-12T23:26:17.350Z,14.50
2023-05-12T23:28:46.642Z,13.07
2023-05-12T23:31:14.414Z,13.20
2023-05-12T23:33:42.390Z,14.30
2023-05-12T23:36:11.027Z,15.03
2023-05-12T23:38:38.865Z,13.13
2023-05-12T23:41:06.694Z,13.07
2023-05-12T23:43:34.554Z,13.67
2023-05-12T23:46:04.306Z,16.80
2023-05-12T23:48:32.325Z,13.47
2023-05-12T23:51:00.225Z,14.10
2023-05-12T23:53:28.015Z,13.27
2023-05-12T23:55:55.845Z,13.67
2023-05-12T23:58:23.775Z,14.00
